createdAt,value
2022-12-01T00:01:26.279Z,12.05
2022-12-01T00:03:54.791Z,14.43
2022-12-01T00:06:22.864Z,12.80
2022-12-01T00:09:18.013Z,13.75
2022-12-01T00:11:47.424Z,10.55
2022-12-01T00:14:17.342Z,13.98
2022-12-01T00:16:45.458Z,12.98
2022-12-01T00:19:13.287Z,15.68
2022-12-01T00:21:41.085Z,11.13
2022-12-01T00:24:11.196Z,12.15
2022-12-01T00:26:39.666Z,11.15
2022-12-01T00:29:07.359Z,10.10
2022-12-01T00:31:36.934Z,10.10
2022-12-01T00:34:09.689Z,13.73
2022-12-01T00:36:39.586Z,11.48
2022-12-01T00:39:07.275Z,9.45
2022-12-01T00:41:35.081Z,19.20
2022-12-01T00:44:02.899Z,9.27
2022-12-01T00:46:30.722Z,12.30
2022-12-01T00:48:59.876Z,13.98
2022-12-01T00:51:27.675Z,11.68
2022-12-01T00:53:55.488Z,11.02
2022-12-01T00:56:23.238Z,16.27
2022-12-01T00:58:51.012Z,11.38
2022-12-01T01:01:18.785Z,10.75
2022-12-01T01:03:46.653Z,16.00
2022-12-01T01:06:16.495Z,11.90
2022-12-01T01:08:44.215Z,12.45
2022-12-01T01:11:12.243Z,10.85
2022-12-01T01:13:40.118Z,8.82
2022-12-01T01:16:11.369Z,15.77
2022-12-01T01:18:39.116Z,9.40
2022-12-01T01:21:12.018Z,13.57
2022-12-01T01:23:41.241Z,11.35
2022-12-01T01:26:12.035Z,11.40
2022-12-01T01:28:41.516Z,12.02
2022-12-01T01:31:09.750Z,11.30
2022-12-01T01:33:37.692Z,12.20
2022-12-01T01:36:06.143Z,15.18
2022-12-01T01:38:34.932Z,11.65
2022-12-01T01:41:04.908Z,7.20
2022-12-01T01:43:50.679Z,8.38
2022-12-01T01:46:20.238Z,7.78
2022-12-01T01:48:51.982Z,9.80
2022-12-01T01:51:23.447Z,13.30
2022-12-01T01:53:54.872Z,13.02
2022-12-01T01:56:24.537Z,14.23
2022-12-01T01:58:54.191Z,14.63
2022-12-01T02:01:22.077Z,12.70
2022-12-01T02:03:53.578Z,12.10
2022-12-01T02:06:23.103Z,18.00
2022-12-01T02:08:51.119Z,12.63
2022-12-01T02:11:48.617Z,10.68
2022-12-01T02:14:41.035Z,11.02
2022-12-01T02:17:20.721Z,11.02
2022-12-01T02:20:18.182Z,16.38
2022-12-01T02:22:58.993Z,14.07
2022-12-01T02:25:41.393Z,7.35
2022-12-01T02:28:28.827Z,11.32
2022-12-01T02:31:01.958Z,9.20
2022-12-01T02:33:37.103Z,16.17
2022-12-01T02:36:14.868Z,8.40
2022-12-01T02:38:52.995Z,8.35
2022-12-01T02:41:27.954Z,9.13
2022-12-01T02:44:00.375Z,8.18
2022-12-01T02:46:35.140Z,11.00
2022-12-01T02:49:07.524Z,14.93
2022-12-01T02:51:38.238Z,9.82
2022-12-01T02:54:06.997Z,11.10
2022-12-01T02:56:34.813Z,15.35
2022-12-01T02:59:02.556Z,10.70
2022-12-01T03:01:47.157Z,9.18
2022-12-01T03:04:53.362Z,16.73
2022-12-01T03:07:40.620Z,9.88
2022-12-01T03:10:17.772Z,12.68
2022-12-01T03:12:54.795Z,10.60
2022-12-01T03:15:32.560Z,10.57
2022-12-01T03:18:10.707Z,9.98
2022-12-01T03:20:43.751Z,9.60
2022-12-01T03:23:16.292Z,7.07
2022-12-01T03:25:48.171Z,10.38
2022-12-01T03:28:21.682Z,12.52
2022-12-01T03:30:54.278Z,9.93
2022-12-01T03:33:28.225Z,13.02
2022-12-01T03:36:00.982Z,10.70
2022-12-01T03:38:30.591Z,12.55
2022-12-01T03:41:02.847Z,11.45
2022-12-01T03:43:35.534Z,10.35
2022-12-01T03:46:11.050Z,9.10
2022-12-01T03:48:41.603Z,8.48
2022-12-01T03:51:17.540Z,8.80
2022-12-01T03:53:54.041Z,10.98
2022-12-01T03:56:25.648Z,13.02
2022-12-01T03:58:58.291Z,9.77
2022-12-01T04:01:28.226Z,14.30
2022-12-01T04:03:57.318Z,10.13
2022-12-01T04:06:25.117Z,8.13
2022-12-01T04:08:52.899Z,9.35
2022-12-01T04:11:43.515Z,8.88
2022-12-01T04:14:11.323Z,9.57
2022-12-01T04:16:39.047Z,8.75
2022-12-01T04:19:08.447Z,7.90
2022-12-01T04:21:36.224Z,9.70
2022-12-01T04:24:04.090Z,9.50
2022-12-01T04:26:33.804Z,13.82
2022-12-01T04:29:02.188Z,6.97
2022-12-01T04:31:30.461Z,8.35
2022-12-01T04:33:58.962Z,8.63
2022-12-01T04:36:31.052Z,6.72
2022-12-01T04:38:58.932Z,7.30
2022-12-01T04:41:27.079Z,9.90
2022-12-01T04:43:55.201Z,6.28
2022-12-01T04:46:23.345Z,8.73
2022-12-01T04:48:51.153Z,10.30
2022-12-01T04:51:19.327Z,12.80
2022-12-01T04:53:48.426Z,11.35
2022-12-01T04:56:16.160Z,8.38
2022-12-01T04:58:43.935Z,9.95
2022-12-01T05:01:14.119Z,14.38
2022-12-01T05:03:43.514Z,8.30
2022-12-01T05:06:13.559Z,8.35
2022-12-01T05:08:41.689Z,7.03
2022-12-01T05:11:12.285Z,6.82
2022-12-01T05:13:41.678Z,13.38
2022-12-01T05:16:11.584Z,9.85
2022-12-01T05:18:40.015Z,7.63
2022-12-01T05:21:09.304Z,10.00
2022-12-01T05:23:38.781Z,9.02
2022-12-01T05:26:08.150Z,8.23
2022-12-01T05:28:37.425Z,8.50
2022-12-01T05:31:05.383Z,10.68
2022-12-01T05:33:33.292Z,10.90
2022-12-01T05:36:01.020Z,11.73
2022-12-01T05:38:28.864Z,12.13
2022-12-01T05:40:57.475Z,8.43
2022-12-01T05:43:28.968Z,9.23
2022-12-01T05:45:59.001Z,11.63
2022-12-01T05:48:27.112Z,12.90
2022-12-01T05:50:54.857Z,12.82
2022-12-01T05:53:22.841Z,13.48
2022-12-01T05:55:53.094Z,18.48
2022-12-01T05:58:20.879Z,11.20
2022-12-01T06:00:48.579Z,6.47
2022-12-01T06:03:17.710Z,7.35
2022-12-01T06:05:45.526Z,8.80
2022-12-01T06:08:13.314Z,10.40
2022-12-01T06:10:41.049Z,9.43
2022-12-01T06:13:08.854Z,10.18
2022-12-01T06:15:37.396Z,10.60
2022-12-01T06:18:05.532Z,12.95
2022-12-01T06:20:34.600Z,10.45
2022-12-01T06:23:02.343Z,8.10
2022-12-01T06:25:30.090Z,12.75
2022-12-01T06:27:58.405Z,13.25
2022-12-01T06:30:26.776Z,9.45
2022-12-01T06:32:54.623Z,11.77
2022-12-01T06:35:22.292Z,9.82
2022-12-01T06:37:53.756Z,11.35
2022-12-01T06:40:22.035Z,8.77
2022-12-01T06:42:49.891Z,13.93
2022-12-01T06:45:17.905Z,10.18
2022-12-01T06:47:48.102Z,11.38
2022-12-01T06:50:15.971Z,9.63
2022-12-01T06:52:43.717Z,12.52
2022-12-01T06:55:12.765Z,7.53
2022-12-01T06:57:40.896Z,13.85
2022-12-01T07:00:09.973Z,13.40
2022-12-01T07:02:38.969Z,11.68
2022-12-01T07:05:07.608Z,13.60
2022-12-01T07:07:37.255Z,11.90
2022-12-01T07:10:05.468Z,12.57
2022-12-01T07:12:35.156Z,11.73
2022-12-01T07:15:02.988Z,9.23
2022-12-01T07:17:31.288Z,14.43
2022-12-01T07:19:59.363Z,10.75
2022-12-01T07:22:32.431Z,12.82
2022-12-01T07:27:30.815Z,10.35
2022-12-01T07:29:59.909Z,16.92
2022-12-01T07:32:27.787Z,16.63
2022-12-01T07:34:55.486Z,12.48
2022-12-01T07:37:23.304Z,11.00
2022-12-01T07:39:51.218Z,14.82
2022-12-01T07:42:19.056Z,6.82
2022-12-01T07:44:46.778Z,9.45
2022-12-01T07:47:15.898Z,10.77
2022-12-01T07:49:43.685Z,12.85
2022-12-01T07:52:11.433Z,11.98
2022-12-01T07:54:39.200Z,14.40
2022-12-01T07:57:06.929Z,9.95
2022-12-01T07:59:34.812Z,14.18
2022-12-01T08:02:02.653Z,13.77
2022-12-01T08:04:31.795Z,12.65
2022-12-01T08:06:59.552Z,14.63
2022-12-01T08:09:27.306Z,10.93
2022-12-01T08:11:55.000Z,13.18
2022-12-01T08:14:22.831Z,11.27
2022-12-01T08:16:50.597Z,13.38
2022-12-01T08:19:18.392Z,12.10
2022-12-01T08:21:47.436Z,17.67
2022-12-01T08:24:15.112Z,12.50
2022-12-01T08:26:42.903Z,10.10
2022-12-01T08:29:11.918Z,14.30
2022-12-01T08:31:42.435Z,10.68
2022-12-01T08:34:10.254Z,15.95
2022-12-01T08:36:37.988Z,14.70
2022-12-01T08:39:09.428Z,16.02
2022-12-01T08:41:37.204Z,12.93
2022-12-01T08:44:05.133Z,10.27
2022-12-01T08:46:34.619Z,17.73
2022-12-01T08:49:02.931Z,14.35
2022-12-01T08:51:30.722Z,15.98
2022-12-01T08:53:59.540Z,12.55
2022-12-01T08:56:30.808Z,19.40
2022-12-01T08:58:59.012Z,14.60
2022-12-01T09:01:27.248Z,12.63
2022-12-01T09:04:06.703Z,12.57
2022-12-01T09:06:38.589Z,13.93
2022-12-01T09:09:06.452Z,14.48
2022-12-01T09:11:35.529Z,11.68
2022-12-01T09:14:03.396Z,13.45
2022-12-01T09:16:31.305Z,14.32
2022-12-01T09:18:59.215Z,14.80
2022-12-01T09:21:30.298Z,12.13
2022-12-01T09:23:58.574Z,14.55
2022-12-01T09:26:26.519Z,15.05
2022-12-01T09:28:58.074Z,20.15
2022-12-01T09:31:26.148Z,13.05
2022-12-01T09:33:58.238Z,20.17
2022-12-01T09:36:26.703Z,11.90
2022-12-01T09:38:54.443Z,13.35
2022-12-01T09:41:25.433Z,10.95
2022-12-01T09:44:01.105Z,12.70
2022-12-01T09:46:34.286Z,13.15
2022-12-01T09:49:03.663Z,17.65
2022-12-01T09:51:34.846Z,10.70
2022-12-01T09:54:03.673Z,21.83
2022-12-01T09:56:34.523Z,13.75
2022-12-01T09:59:08.205Z,8.73
2022-12-01T10:01:39.260Z,8.38
2022-12-01T10:04:11.880Z,9.45
2022-12-01T10:06:44.816Z,9.57
2022-12-01T10:09:22.581Z,12.10
2022-12-01T10:11:54.972Z,9.90
2022-12-01T10:14:24.115Z,13.82
2022-12-01T10:17:02.023Z,19.00
2022-12-01T10:19:34.971Z,8.90
2022-12-01T10:22:21.392Z,9.95
2022-12-01T10:24:55.651Z,14.75
2022-12-01T10:27:40.063Z,7.82
2022-12-01T10:30:13.872Z,10.52
2022-12-01T10:32:52.293Z,18.05
2022-12-01T10:35:23.753Z,11.88
2022-12-01T10:37:57.031Z,14.75
2022-12-01T10:40:25.385Z,31.13
2022-12-01T10:42:53.154Z,17.65
2022-12-01T10:45:25.085Z,14.98
2022-12-01T10:48:17.680Z,15.63
2022-12-01T10:50:47.608Z,16.70
2022-12-01T10:53:30.456Z,19.65
2022-12-01T10:56:04.098Z,17.98
2022-12-01T11:01:04.836Z,12.73
2022-12-01T11:03:34.502Z,15.73
2022-12-01T11:06:05.825Z,11.70
2022-12-01T11:08:40.479Z,15.95
2022-12-01T11:11:25.197Z,19.08
2022-12-01T11:13:53.246Z,14.68
2022-12-01T11:16:38.440Z,10.13
2022-12-01T11:19:21.877Z,14.07
2022-12-01T11:21:56.797Z,17.85
2022-12-01T11:24:34.490Z,19.30
2022-12-01T11:27:02.359Z,18.88
2022-12-01T11:29:36.094Z,17.85
2022-12-01T11:32:19.869Z,18.33
2022-12-01T11:37:21.193Z,17.98
2022-12-01T11:39:49.946Z,14.23
2022-12-01T11:42:24.175Z,15.43
2022-12-01T11:44:56.004Z,15.23
2022-12-01T11:47:26.899Z,21.70
2022-12-01T11:49:56.731Z,14.95
2022-12-01T11:52:28.316Z,13.70
2022-12-01T11:54:58.299Z,18.88
2022-12-01T11:57:34.257Z,19.65
2022-12-01T12:00:03.324Z,15.30
2022-12-01T12:02:40.990Z,23.52
2022-12-01T12:05:45.326Z,18.20
2022-12-01T12:08:26.148Z,25.80
2022-12-01T12:11:03.156Z,20.70
2022-12-01T12:13:57.531Z,18.75
2022-12-01T12:16:39.255Z,15.80
2022-12-01T12:19:33.726Z,19.58
2022-12-01T12:22:21.051Z,19.77
2022-12-01T12:25:04.156Z,18.40
2022-12-01T12:27:41.155Z,20.58
2022-12-01T12:30:22.456Z,19.38
2022-12-01T12:33:29.792Z,27.55
2022-12-01T12:36:11.567Z,24.90
2022-12-01T12:38:50.484Z,15.30
2022-12-01T12:41:29.688Z,24.30
2022-12-01T12:44:08.866Z,22.80
2022-12-01T12:46:45.859Z,17.10
2022-12-01T12:49:27.424Z,28.27
2022-12-01T12:52:08.176Z,18.27
2022-12-01T12:54:44.416Z,24.38
2022-12-01T12:57:22.960Z,29.77
2022-12-01T12:59:56.071Z,19.70
2022-12-01T13:02:30.425Z,18.98
2022-12-01T13:05:04.623Z,27.73
2022-12-01T13:07:41.484Z,21.30
2022-12-01T13:10:20.613Z,24.33
2022-12-01T13:12:56.160Z,25.50
2022-12-01T13:15:24.049Z,18.75
2022-12-01T13:17:55.032Z,16.98
2022-12-01T13:20:27.614Z,29.52
2022-12-01T13:22:58.875Z,18.30
2022-12-01T13:25:31.109Z,17.35
2022-12-01T13:28:01.657Z,21.77
2022-12-01T13:30:29.716Z,18.80
2022-12-01T13:33:03.507Z,19.38
2022-12-01T13:35:35.000Z,16.95
2022-12-01T13:38:24.812Z,25.52
2022-12-01T13:41:11.656Z,19.85
2022-12-01T13:43:52.888Z,20.08
2022-12-01T13:46:23.917Z,22.73
2022-12-01T13:48:53.681Z,16.67
2022-12-01T13:51:21.351Z,24.90
2022-12-01T13:54:05.132Z,18.95
2022-12-01T13:59:55.968Z,19.38
2022-12-01T14:02:23.819Z,19.88
2022-12-01T14:04:52.082Z,16.45
2022-12-01T14:07:39.439Z,19.27
2022-12-01T14:10:30.212Z,19.10
2022-12-01T14:13:02.624Z,15.85
2022-12-01T14:15:40.315Z,19.88
2022-12-01T14:18:24.012Z,20.95
2022-12-01T14:20:51.973Z,13.68
2022-12-01T14:23:28.941Z,12.70
2022-12-01T14:26:12.616Z,15.27
2022-12-01T14:29:10.653Z,16.92
2022-12-01T14:32:04.851Z,18.70
2022-12-01T14:34:34.755Z,15.95
2022-12-01T14:37:07.731Z,15.93
2022-12-01T14:39:38.900Z,18.77
2022-12-01T14:42:38.388Z,13.93
2022-12-01T14:45:09.028Z,13.00
2022-12-01T14:47:43.447Z,19.77
2022-12-01T14:50:17.893Z,11.45
2022-12-01T14:52:50.246Z,16.85
2022-12-01T14:55:21.876Z,14.63
2022-12-01T14:57:52.821Z,19.70
2022-12-01T15:00:23.176Z,15.18
2022-12-01T15:02:55.015Z,13.57
2022-12-01T15:05:27.060Z,12.52
2022-12-01T15:08:18.761Z,16.08
2022-12-01T15:10:52.989Z,8.95
2022-12-01T15:13:27.919Z,12.48
2022-12-01T15:15:57.811Z,16.50
2022-12-01T15:18:29.732Z,16.27
2022-12-01T15:21:01.746Z,13.27
2022-12-01T15:23:29.519Z,11.48
2022-12-01T15:25:57.846Z,12.48
2022-12-01T15:28:33.239Z,13.25
2022-12-01T15:31:02.772Z,18.17
2022-12-01T15:33:36.941Z,16.45
2022-12-01T15:36:06.128Z,12.05
2022-12-01T15:38:37.164Z,15.30
2022-12-01T15:41:28.675Z,14.30
2022-12-01T15:43:58.113Z,15.00
2022-12-01T15:46:30.724Z,12.23
2022-12-01T15:49:09.274Z,13.43
2022-12-01T15:51:37.112Z,10.40
2022-12-01T15:54:05.300Z,15.80
2022-12-01T15:56:35.483Z,17.40
2022-12-01T15:59:09.781Z,11.30
2022-12-01T16:01:38.519Z,10.48
2022-12-01T16:04:15.451Z,8.20
2022-12-01T16:06:43.695Z,8.40
2022-12-01T16:09:22.764Z,7.35
2022-12-01T16:12:17.842Z,9.23
2022-12-01T16:14:56.567Z,10.80
2022-12-01T16:17:25.504Z,7.70
2022-12-01T16:20:23.466Z,7.07
2022-12-01T16:22:56.614Z,12.05
2022-12-01T16:25:30.939Z,9.30
2022-12-01T16:27:59.132Z,8.20
2022-12-01T16:30:31.369Z,7.72
2022-12-01T16:33:04.215Z,5.85
2022-12-01T16:35:34.446Z,7.32
2022-12-01T16:38:11.284Z,10.70
2022-12-01T16:40:41.756Z,11.88
2022-12-01T16:43:14.672Z,6.25
2022-12-01T16:45:44.394Z,7.63
2022-12-01T16:48:12.345Z,6.47
2022-12-01T16:50:40.984Z,7.35
2022-12-01T16:53:08.734Z,4.43
2022-12-01T16:55:39.512Z,7.25
2022-12-01T16:58:07.336Z,6.10
2022-12-01T17:00:35.587Z,7.65
2022-12-01T17:03:05.813Z,9.90
2022-12-01T17:05:34.215Z,12.35
2022-12-01T17:08:02.004Z,10.98
2022-12-01T17:10:29.933Z,13.85
2022-12-01T17:12:58.322Z,10.43
2022-12-01T17:15:26.200Z,11.63
2022-12-01T17:17:54.486Z,14.20
2022-12-01T17:20:23.769Z,10.57
2022-12-01T17:22:51.486Z,10.88
2022-12-01T17:25:19.450Z,12.75
2022-12-01T17:27:47.149Z,11.50
2022-12-01T17:30:15.451Z,9.63
2022-12-01T17:32:43.220Z,6.50
2022-12-01T17:35:11.964Z,7.60
2022-12-01T17:37:41.485Z,12.93
2022-12-01T17:40:13.787Z,8.77
2022-12-01T17:42:46.814Z,10.48
2022-12-01T17:45:18.144Z,13.52
2022-12-01T17:47:45.913Z,12.73
2022-12-01T17:50:13.686Z,10.27
2022-12-01T17:52:42.853Z,13.65
2022-12-01T17:55:11.042Z,9.40
2022-12-01T17:57:38.734Z,16.40
2022-12-01T18:00:07.947Z,9.95
2022-12-01T18:02:35.852Z,10.07
2022-12-01T18:05:03.895Z,10.65
2022-12-01T18:07:31.891Z,8.65
2022-12-01T18:10:01.180Z,7.28
2022-12-01T18:12:29.008Z,9.05
2022-12-01T18:14:56.899Z,8.40
2022-12-01T18:17:24.633Z,12.73
2022-12-01T18:19:52.432Z,8.13
2022-12-01T18:22:20.239Z,12.88
2022-12-01T18:24:48.488Z,17.35
2022-12-01T18:27:17.860Z,11.32
2022-12-01T18:29:45.745Z,11.43
2022-12-01T18:32:13.432Z,9.73
2022-12-01T18:34:41.234Z,11.27
2022-12-01T18:37:09.077Z,11.45
2022-12-01T18:39:36.856Z,10.43
2022-12-01T18:42:04.848Z,14.38
2022-12-01T18:44:34.140Z,11.13
2022-12-01T18:47:02.566Z,11.65
2022-12-01T18:49:30.465Z,14.45
2022-12-01T18:51:59.809Z,13.25
2022-12-01T18:54:27.940Z,14.93
2022-12-01T18:56:58.740Z,12.82
2022-12-01T18:59:26.949Z,11.60
2022-12-01T19:01:56.132Z,13.50
2022-12-01T19:04:23.931Z,13.70
2022-12-01T19:06:51.691Z,14.77
2022-12-01T19:09:19.513Z,12.05
2022-12-01T19:11:47.289Z,10.25
2022-12-01T19:14:16.877Z,13.85
2022-12-01T19:16:45.645Z,12.85
2022-12-01T19:19:14.905Z,15.90
2022-12-01T19:21:42.871Z,15.05
2022-12-01T19:24:10.742Z,11.55
2022-12-01T19:26:38.614Z,18.73
2022-12-01T19:29:06.528Z,17.58
2022-12-01T19:31:34.286Z,13.00
2022-12-01T19:34:03.654Z,16.20
2022-12-01T19:36:32.955Z,14.52
2022-12-01T19:39:04.388Z,21.30
2022-12-01T19:41:35.241Z,16.63
2022-12-01T19:44:03.087Z,12.77
2022-12-01T19:46:30.776Z,16.75
2022-12-01T19:49:01.991Z,21.90
2022-12-01T19:51:34.943Z,17.13
2022-12-01T19:54:03.180Z,19.30
2022-12-01T19:56:31.480Z,16.00
2022-12-01T19:58:59.941Z,15.63
2022-12-01T20:01:28.877Z,16.38
2022-12-01T20:03:56.932Z,14.60
2022-12-01T20:06:26.336Z,18.33
2022-12-01T20:08:57.350Z,18.02
2022-12-01T20:11:25.356Z,14.40
2022-12-01T20:13:53.472Z,17.95
2022-12-01T20:16:23.573Z,12.68
2022-12-01T20:18:52.619Z,14.50
2022-12-01T20:21:22.621Z,14.93
2022-12-01T20:23:52.656Z,18.50
2022-12-01T20:26:26.176Z,19.20
2022-12-01T20:29:00.485Z,15.30
2022-12-01T20:31:29.864Z,17.13
2022-12-01T20:33:59.609Z,17.38
2022-12-01T20:36:28.300Z,15.05
2022-12-01T20:38:56.596Z,21.42
2022-12-01T20:41:25.717Z,15.15
2022-12-01T20:43:53.621Z,18.17
2022-12-01T20:46:21.444Z,19.98
2022-12-01T20:48:49.315Z,16.73
2022-12-01T20:51:17.345Z,15.50
2022-12-01T20:54:05.522Z,16.75
2022-12-01T20:56:35.183Z,14.20
2022-12-01T20:59:02.911Z,14.70
2022-12-01T21:01:30.971Z,19.80
2022-12-01T21:03:58.791Z,13.23
2022-12-01T21:06:28.677Z,14.32
2022-12-01T21:08:56.964Z,15.85
2022-12-01T21:11:41.211Z,16.48
2022-12-01T21:14:16.461Z,17.20
2022-12-01T21:16:48.268Z,15.85
2022-12-01T21:19:22.816Z,21.52
2022-12-01T21:21:50.577Z,14.82
2022-12-01T21:24:20.625Z,15.48
2022-12-01T21:26:50.500Z,20.10
2022-12-01T21:29:22.899Z,15.80
2022-12-01T21:31:52.952Z,19.02
2022-12-01T21:34:22.992Z,16.70
2022-12-01T21:36:52.596Z,19.85
2022-12-01T21:39:22.592Z,15.73
2022-12-01T21:41:51.693Z,19.23
2022-12-01T21:44:22.713Z,16.42
2022-12-01T21:46:57.130Z,20.00
2022-12-01T21:49:34.557Z,18.85
2022-12-01T21:52:03.499Z,15.70
2022-12-01T21:54:31.274Z,16.05
2022-12-01T21:56:59.483Z,18.30
2022-12-01T21:59:29.189Z,17.92
2022-12-01T22:01:58.461Z,15.25
2022-12-01T22:04:29.956Z,14.70
2022-12-01T22:06:59.004Z,20.73
2022-12-01T22:09:28.479Z,21.73
2022-12-01T22:11:58.410Z,24.75
2022-12-01T22:14:33.544Z,12.45
2022-12-01T22:17:15.984Z,22.38
2022-12-01T22:19:47.797Z,20.05
2022-12-01T22:22:24.655Z,14.63
2022-12-01T22:24:53.895Z,15.38
2022-12-01T22:27:30.669Z,12.88
2022-12-01T22:30:02.620Z,14.27
2022-12-01T22:32:39.174Z,11.80
2022-12-01T22:35:33.516Z,13.57
2022-12-01T22:38:18.388Z,12.93
2022-12-01T22:40:54.728Z,16.40
2022-12-01T22:43:28.644Z,12.93
2022-12-01T22:46:12.731Z,11.10
2022-12-01T22:48:42.688Z,13.55
2022-12-01T22:51:26.047Z,18.35
2022-12-01T22:53:59.352Z,21.33
2022-12-01T22:56:38.800Z,20.25
2022-12-01T22:59:19.798Z,21.35
2022-12-01T23:01:52.093Z,17.92
2022-12-01T23:04:26.305Z,18.98
2022-12-01T23:07:00.757Z,13.77
2022-12-01T23:09:33.297Z,16.08
2022-12-01T23:12:06.521Z,14.38
2022-12-01T23:14:35.021Z,22.23
2022-12-01T23:17:13.944Z,20.30
2022-12-01T23:19:41.742Z,17.10
2022-12-01T23:22:10.713Z,21.77
2022-12-01T23:24:38.580Z,22.55
2022-12-01T23:27:07.047Z,26.08
2022-12-01T23:29:35.533Z,25.30
2022-12-01T23:32:03.495Z,27.85
2022-12-01T23:34:32.752Z,23.90
2022-12-01T23:37:00.528Z,44.50
2022-12-01T23:39:33.040Z,36.03
2022-12-01T23:42:01.283Z,30.63
2022-12-01T23:44:38.396Z,39.88
2022-12-01T23:47:17.115Z,45.67
2022-12-01T23:49:48.209Z,41.90
2022-12-01T23:52:19.693Z,40.03
2022-12-01T23:54:48.290Z,34.55
2022-12-01T23:57:21.832Z,36.08
2022-12-01T23:59:50.423Z,33.05
